createdAt,value
2022-09-28T00:00:50.255Z,7.70
2022-09-28T00:05:52.137Z,7.70
2022-09-28T00:10:57.705Z,7.80
2022-09-28T00:16:01.452Z,7.90
2022-09-28T00:21:06.638Z,7.90
2022-09-28T00:26:08.426Z,7.90
2022-09-28T00:31:10.335Z,7.90
2022-09-28T00:36:12.083Z,7.80
2022-09-28T00:41:14.671Z,7.80
2022-09-28T00:46:19.602Z,7.80
2022-09-28T00:51:21.939Z,7.70
2022-09-28T00:56:29.310Z,7.60
2022-09-28T01:01:31.394Z,7.60
2022-09-28T01:06:36.016Z,7.60
2022-09-28T01:11:39.301Z,7.60
2022-09-28T01:17:39.830Z,7.60
2022-09-28T01:23:13.321Z,7.60
2022-09-28T01:28:18.986Z,7.60
2022-09-28T01:33:26.216Z,7.60
2022-09-28T01:39:09.362Z,7.60
2022-09-28T01:44:16.789Z,7.50
2022-09-28T01:49:27.523Z,7.60
2022-09-28T01:54:35.697Z,7.70
2022-09-28T01:59:44.277Z,7.80
2022-09-28T02:04:48.370Z,7.70
2022-09-28T02:10:03.406Z,7.70
2022-09-28T02:15:18.334Z,7.70
2022-09-28T02:20:23.837Z,7.60
2022-09-28T02:25:35.238Z,7.70
2022-09-28T02:30:39.135Z,7.70
2022-09-28T02:35:42.961Z,7.60
2022-09-28T02:40:55.806Z,7.70
2022-09-28T02:46:18.848Z,7.70
2022-09-28T02:51:37.497Z,7.60
2022-09-28T02:57:01.606Z,7.60
2022-09-28T03:02:12.197Z,7.60
2022-09-28T03:07:22.773Z,7.60
2022-09-28T03:12:26.203Z,7.70
2022-09-28T03:17:28.022Z,7.70
2022-09-28T03:22:29.886Z,7.70
2022-09-28T03:27:31.599Z,7.70
2022-09-28T03:32:33.815Z,7.80
2022-09-28T03:37:36.246Z,7.80
2022-09-28T03:42:38.490Z,7.80
2022-09-28T03:47:44.587Z,7.80
2022-09-28T03:52:46.882Z,7.80
2022-09-28T03:57:54.942Z,7.80
2022-09-28T04:02:56.714Z,7.80
2022-09-28T04:07:58.523Z,7.80
2022-09-28T04:13:00.276Z,7.80
2022-09-28T04:18:02.213Z,7.80
2022-09-28T04:23:20.409Z,7.80
2022-09-28T04:28:40.710Z,7.80
2022-09-28T04:33:42.579Z,7.90
2022-09-28T04:38:59.623Z,7.90
2022-09-28T04:44:03.610Z,7.90
2022-09-28T04:49:05.621Z,7.90
2022-09-28T04:54:19.083Z,7.90
2022-09-28T04:59:20.922Z,8.00
2022-09-28T05:04:26.028Z,8.00
2022-09-28T05:09:51.186Z,8.00
2022-09-28T05:14:52.998Z,8.00
2022-09-28T05:19:54.929Z,8.00
2022-09-28T05:24:58.211Z,8.00
2022-09-28T05:30:00.135Z,8.00
2022-09-28T05:35:06.254Z,8.10
2022-09-28T05:40:16.773Z,8.00
2022-09-28T05:45:18.535Z,8.00
2022-09-28T05:50:20.802Z,8.10
2022-09-28T05:55:23.105Z,8.10
2022-09-28T06:00:25.080Z,8.10
2022-09-28T06:05:31.170Z,8.10
2022-09-28T06:10:33.481Z,8.20
2022-09-28T06:15:36.984Z,8.20
2022-09-28T06:20:42.905Z,8.20
2022-09-28T06:25:49.151Z,8.20
2022-09-28T06:30:52.076Z,8.30
2022-09-28T06:35:55.491Z,8.30
2022-09-28T06:40:57.796Z,8.40
2022-09-28T06:46:00.452Z,8.40
2022-09-28T06:51:05.006Z,8.30
2022-09-28T06:56:11.754Z,8.30
2022-09-28T07:01:13.821Z,8.20
2022-09-28T07:06:24.100Z,8.30
2022-09-28T07:11:46.620Z,8.30
2022-09-28T07:17:26.998Z,8.30
2022-09-28T07:22:41.365Z,8.40
2022-09-28T07:27:47.148Z,8.50
2022-09-28T07:33:14.965Z,8.50
2022-09-28T07:38:25.979Z,8.50
2022-09-28T07:43:28.010Z,8.50
2022-09-28T07:48:38.005Z,8.60
2022-09-28T07:53:54.209Z,8.50
2022-09-28T07:59:18.709Z,8.60
2022-09-28T08:04:49.837Z,8.60
2022-09-28T08:09:51.638Z,8.60
2022-09-28T08:15:13.720Z,8.60
2022-09-28T08:20:49.373Z,8.60
2022-09-28T08:25:56.674Z,8.60
2022-09-28T08:31:02.244Z,8.70
2022-09-28T08:36:09.102Z,8.60
2022-09-28T08:41:47.741Z,8.60
2022-09-28T08:47:46.350Z,8.70
2022-09-28T08:53:25.718Z,8.70
2022-09-28T08:58:43.225Z,8.80
2022-09-28T09:03:45.818Z,8.70
2022-09-28T09:09:23.130Z,8.70
2022-09-28T09:15:02.728Z,8.80
2022-09-28T09:20:20.337Z,8.80
2022-09-28T09:25:54.818Z,8.90
2022-09-28T09:31:09.293Z,8.90
2022-09-28T09:36:51.972Z,8.90
2022-09-28T09:42:44.623Z,9.00
2022-09-28T09:48:56.521Z,9.10
2022-09-28T09:54:23.930Z,9.20
2022-09-28T09:59:33.777Z,9.20
2022-09-28T10:05:11.610Z,9.20
2022-09-28T10:10:49.469Z,9.30
2022-09-28T10:15:53.426Z,9.40
2022-09-28T10:21:04.277Z,9.50
2022-09-28T10:26:25.443Z,9.50
2022-09-28T10:31:43.669Z,9.60
2022-09-28T10:36:55.908Z,9.70
2022-09-28T10:42:04.192Z,9.80
2022-09-28T10:47:14.447Z,9.90
2022-09-28T10:52:43.039Z,10.10
2022-09-28T10:57:53.099Z,10.30
2022-09-28T11:02:56.621Z,10.30
2022-09-28T11:08:02.678Z,10.20
2022-09-28T11:13:12.101Z,10.30
2022-09-28T11:18:32.521Z,10.30
2022-09-28T11:23:40.983Z,10.20
2022-09-28T11:28:53.384Z,10.30
2022-09-28T11:34:36.475Z,10.30
2022-09-28T11:40:12.836Z,10.40
2022-09-28T11:45:27.858Z,10.40
2022-09-28T11:51:09.316Z,10.40
2022-09-28T11:56:24.375Z,10.40
2022-09-28T12:01:40.187Z,10.40
2022-09-28T12:08:13.140Z,10.50
2022-09-28T12:14:37.631Z,10.50
2022-09-28T12:19:47.621Z,10.40
2022-09-28T12:24:52.803Z,10.40
2022-09-28T12:30:04.418Z,10.40
2022-09-28T12:35:19.748Z,10.60
2022-09-28T12:40:36.766Z,10.60
2022-09-28T12:46:12.112Z,10.80
2022-09-28T12:51:32.753Z,11.10
2022-09-28T12:57:02.006Z,11.20
2022-09-28T13:02:22.202Z,11.10
2022-09-28T13:08:11.506Z,11.10
2022-09-28T13:13:37.316Z,11.10
2022-09-28T13:18:54.748Z,11.10
2022-09-28T13:24:20.668Z,11.00
2022-09-28T13:29:26.885Z,11.10
2022-09-28T13:34:34.288Z,11.10
2022-09-28T13:39:56.369Z,11.30
2022-09-28T13:45:20.645Z,11.30
2022-09-28T13:50:53.151Z,11.20
2022-09-28T13:56:18.912Z,11.10
2022-09-28T14:01:27.270Z,11.10
2022-09-28T14:06:32.139Z,11.10
2022-09-28T14:11:36.808Z,11.20
2022-09-28T14:16:43.810Z,11.10
2022-09-28T14:22:22.282Z,11.00
2022-09-28T14:27:58.655Z,11.10
2022-09-28T14:33:02.522Z,11.00
2022-09-28T14:38:32.897Z,11.00
2022-09-28T14:43:34.609Z,10.90
2022-09-28T14:49:01.706Z,10.90
2022-09-28T14:54:19.789Z,10.80
2022-09-28T14:59:24.380Z,10.80
2022-09-28T15:04:29.479Z,10.80
2022-09-28T15:09:36.921Z,10.70
2022-09-28T15:14:52.571Z,10.70
2022-09-28T15:20:07.146Z,10.60
2022-09-28T15:25:14.738Z,10.60
2022-09-28T15:30:16.955Z,10.50
2022-09-28T15:35:27.308Z,10.50
2022-09-28T15:40:34.994Z,10.50
2022-09-28T15:45:38.452Z,10.50
2022-09-28T15:50:54.987Z,10.50
2022-09-28T15:56:04.380Z,10.40
2022-09-28T16:01:44.453Z,10.30
2022-09-28T16:07:10.381Z,10.30
2022-09-28T16:12:12.915Z,10.30
2022-09-28T16:17:32.974Z,10.20
2022-09-28T16:22:34.762Z,10.20
2022-09-28T16:27:42.965Z,10.20
2022-09-28T16:32:56.356Z,10.20
2022-09-28T16:37:58.050Z,10.20
2022-09-28T16:43:03.272Z,10.10
2022-09-28T16:48:05.350Z,10.10
2022-09-28T16:53:33.338Z,10.00
2022-09-28T16:58:36.557Z,10.00
2022-09-28T17:03:48.911Z,10.00
2022-09-28T17:09:27.170Z,9.90
2022-09-28T17:14:39.609Z,9.90
2022-09-28T17:19:47.056Z,9.80
2022-09-28T17:24:55.316Z,9.80
2022-09-28T17:29:57.518Z,9.80
2022-09-28T17:35:19.801Z,9.80
2022-09-28T17:40:28.811Z,9.80
2022-09-28T17:45:31.266Z,9.70
2022-09-28T17:50:35.950Z,9.70
2022-09-28T17:55:39.129Z,9.70
2022-09-28T18:00:40.911Z,9.60
2022-09-28T18:05:50.000Z,9.60
2022-09-28T18:10:51.736Z,9.60
2022-09-28T18:15:54.899Z,9.60
2022-09-28T18:20:56.682Z,9.60
2022-09-28T18:25:58.410Z,9.60
2022-09-28T18:31:06.271Z,9.50
2022-09-28T18:36:08.224Z,9.50
2022-09-28T18:41:14.437Z,9.60
2022-09-28T18:46:18.149Z,9.50
2022-09-28T18:51:20.576Z,9.40
2022-09-28T18:56:22.537Z,9.40
2022-09-28T19:01:32.121Z,9.50
2022-09-28T19:06:37.107Z,9.40
2022-09-28T19:11:39.061Z,9.50
2022-09-28T19:16:41.419Z,9.50
2022-09-28T19:21:43.637Z,9.50
2022-09-28T19:26:46.505Z,9.50
2022-09-28T19:31:49.727Z,9.50
2022-09-28T19:36:51.494Z,9.50
2022-09-28T19:41:53.211Z,9.50
2022-09-28T19:47:00.743Z,9.60
2022-09-28T19:52:19.213Z,9.50
2022-09-28T19:57:21.342Z,9.50
2022-09-28T20:02:23.371Z,9.50
2022-09-28T20:07:25.294Z,9.60
2022-09-28T20:12:27.035Z,9.50
2022-09-28T20:17:28.739Z,9.50
2022-09-28T20:22:30.940Z,9.50
2022-09-28T20:27:32.698Z,9.40
2022-09-28T20:32:35.201Z,9.50
2022-09-28T20:37:36.907Z,9.50
2022-09-28T20:42:42.032Z,9.50
2022-09-28T20:47:43.837Z,9.60
2022-09-28T20:52:45.752Z,9.50
2022-09-28T20:57:47.606Z,9.60
2022-09-28T21:02:53.594Z,9.60
2022-09-28T21:07:55.328Z,9.60
2022-09-28T21:12:57.090Z,9.60
2022-09-28T21:17:58.830Z,9.60
2022-09-28T21:23:00.608Z,9.60
2022-09-28T21:28:02.561Z,9.50
2022-09-28T21:33:04.329Z,9.50
2022-09-28T21:38:06.190Z,9.60
2022-09-28T21:43:08.041Z,9.50
2022-09-28T21:48:09.771Z,9.50
2022-09-28T21:53:11.563Z,9.50
2022-09-28T21:58:13.295Z,9.50
2022-09-28T22:03:17.094Z,9.40
2022-09-28T22:08:20.054Z,9.40
2022-09-28T22:13:21.747Z,9.50
2022-09-28T22:18:23.575Z,9.50
2022-09-28T22:23:25.290Z,9.50
2022-09-28T22:28:27.550Z,9.50
2022-09-28T22:33:29.609Z,9.40
2022-09-28T22:38:32.265Z,9.40
2022-09-28T22:43:35.014Z,9.40
2022-09-28T22:48:36.890Z,9.40
2022-09-28T22:53:38.870Z,9.30
2022-09-28T22:58:40.761Z,9.30
2022-09-28T23:03:42.811Z,9.30
2022-09-28T23:08:45.733Z,9.30
2022-09-28T23:13:52.122Z,9.30
2022-09-28T23:18:55.533Z,9.20
2022-09-28T23:24:00.914Z,9.30
2022-09-28T23:29:02.682Z,9.30
2022-09-28T23:34:06.712Z,9.30
2022-09-28T23:39:09.830Z,9.30
2022-09-28T23:44:11.535Z,9.30
2022-09-28T23:49:13.442Z,9.30
2022-09-28T23:54:16.118Z,9.20
2022-09-28T23:59:17.872Z,9.20
